Time;durP1;ratioP1;P1;durP2;ratioP2;P2;SDS_P1;SDS_P2;PMS_P1;PMS_P2;Temp;Humidity;BMP_temperature;BMP_pressure;BME280_temperature;BME280_humidity;BME280_pressure;Samples;Min_cycle;Max_cycle;Signal;HPM_P1;HPM_P2
2021/04/16 00:01:36;;;;;;;8.73;7.25;;;;;;;6.16;66.12;101126.00;5015425;28;20053;-63
2021/04/16 00:04:04;;;;;;;9.38;6.85;;;;;;;6.16;66.09;101128.56;5016243;28;20497;-63
2021/04/16 00:06:32;;;;;;;10.15;6.20;;;;;;;6.16;65.79;101120.84;5015451;28;20561;-63
2021/04/16 00:09:00;;;;;;;9.90;6.93;;;;;;;6.15;66.59;101125.13;5015218;28;20044;-63
2021/04/16 00:11:28;;;;;;;8.40;6.55;;;;;;;6.15;66.64;101122.56;5015918;28;20129;-63
2021/04/16 00:13:56;;;;;;;8.50;6.38;;;;;;;6.15;66.29;101121.69;5015220;28;20121;-63
2021/04/16 00:16:27;;;;;;;8.27;6.75;;;;;;;6.15;66.28;101121.69;5015286;28;20091;-63
2021/04/16 00:18:55;;;;;;;7.47;6.75;;;;;;;6.13;65.84;101119.00;4998919;28;20038;-64
2021/04/16 00:21:25;;;;;;;8.38;7.22;;;;;;;6.14;66.19;101115.63;5016453;28;20041;-64
2021/04/16 00:23:56;;;;;;;8.93;8.02;;;;;;;6.14;66.36;101104.47;5014864;28;20083;-63
2021/04/16 00:26:24;;;;;;;12.68;6.90;;;;;;;6.13;66.14;101107.84;5016834;28;20402;-64
2021/04/16 00:28:52;;;;;;;7.55;6.72;;;;;;;6.12;66.02;101104.38;5016239;28;20049;-64
2021/04/16 00:31:17;;;;;;;8.95;6.63;;;;;;;6.12;66.09;101103.50;5014954;28;20038;-64
2021/04/16 00:33:43;;;;;;;8.80;7.00;;;;;;;6.12;65.95;101101.81;5015229;28;20040;-64
2021/04/16 00:36:10;;;;;;;11.25;7.10;;;;;;;6.11;66.64;101105.19;5014054;28;20134;-63
2021/04/16 00:38:49;;;;;;;8.77;7.75;;;;;;;6.11;66.28;101101.72;5015610;28;20037;-64
2021/04/16 00:41:20;;;;;;;8.88;7.80;;;;;;;6.12;65.84;101106.06;5015980;28;20040;-64
2021/04/16 00:43:48;;;;;;;9.43;7.65;;;;;;;6.10;66.42;101100.84;5014525;28;20030;-64
2021/04/16 00:46:22;;;;;;;8.73;7.05;;;;;;;6.10;66.22;101100.84;5016020;28;20044;-64
2021/04/16 00:48:52;;;;;;;9.90;7.85;;;;;;;6.11;66.56;101094.00;4998378;28;20044;-64
2021/04/16 00:51:45;;;;;;;9.68;7.07;;;;;;;6.08;66.83;101098.19;5015151;28;20048;-64
2021/04/16 00:54:23;;;;;;;8.55;7.13;;;;;;;6.08;66.35;101092.16;5015315;28;20477;-64
2021/04/16 00:56:52;;;;;;;8.57;7.78;;;;;;;6.08;66.79;101087.91;5015387;28;20038;-63
2021/04/16 00:59:27;;;;;;;12.45;8.20;;;;;;;6.06;66.63;101084.34;5014574;28;20065;-64
2021/04/16 01:02:03;;;;;;;8.27;6.60;;;;;;;6.06;66.35;101092.09;5014518;28;20417;-64
2021/04/16 01:04:32;;;;;;;8.65;6.72;;;;;;;6.06;66.63;101089.50;5015746;28;20060;-64
2021/04/16 01:06:59;;;;;;;7.20;6.50;;;;;;;6.06;65.98;101086.94;5014483;28;20062;-65
2021/04/16 01:09:27;;;;;;;7.85;6.50;;;;;;;6.05;66.69;101080.00;5015104;28;20121;-64
2021/04/16 01:11:58;;;;;;;10.20;7.20;;;;;;;6.06;66.37;101081.78;5015252;28;20029;-64
2021/04/16 01:14:26;;;;;;;8.40;7.30;;;;;;;6.05;66.22;101082.59;5015997;28;20113;-64
2021/04/16 01:16:59;;;;;;;7.93;7.00;;;;;;;6.05;66.11;101079.16;5014144;28;20038;-64
2021/04/16 01:19:43;;;;;;;8.87;6.87;;;;;;;6.05;66.93;101076.56;5015514;28;20034;-64
2021/04/16 01:22:27;;;;;;;7.97;7.07;;;;;;;6.04;66.68;101072.22;5015346;28;20269;-64
2021/04/16 01:24:58;;;;;;;9.27;6.85;;;;;;;6.03;66.00;101073.91;5014228;28;20042;-64
2021/04/16 01:27:31;;;;;;;9.93;6.60;;;;;;;6.02;66.49;101066.97;5014311;28;20040;-64
2021/04/16 01:30:14;;;;;;;8.32;6.50;;;;;;;6.02;66.70;101069.56;4998183;28;20049;-64
2021/04/16 01:32:44;;;;;;;9.15;7.03;;;;;;;6.01;66.69;101064.34;5013989;28;20065;-65
2021/04/16 01:35:24;;;;;;;7.78;6.68;;;;;;;6.00;67.07;101066.03;5015370;28;20038;-64
2021/04/16 01:37:54;;;;;;;10.70;7.20;;;;;;;6.01;66.37;101066.91;5015393;28;20038;-64
2021/04/16 01:40:23;;;;;;;8.00;7.20;;;;;;;6.01;66.91;101064.34;5013836;28;20486;-64
2021/04/16 01:42:49;;;;;;;7.65;6.22;;;;;;;6.00;66.32;101066.03;5014897;28;20030;-64
2021/04/16 01:45:22;;;;;;;7.20;6.47;;;;;;;5.99;66.50;101066.81;5013483;28;20037;-64
2021/04/16 01:48:02;;;;;;;8.40;7.43;;;;;;;5.99;66.83;101064.25;5013108;28;20045;-64
2021/04/16 01:50:34;;;;;;;9.27;7.13;;;;;;;5.99;66.63;101063.34;5013831;28;20469;-64
2021/04/16 01:53:02;;;;;;;9.40;7.60;;;;;;;5.99;66.85;101063.34;5013775;28;20065;-65
2021/04/16 01:55:33;;;;;;;7.75;6.40;;;;;;;5.98;66.85;101065.06;5014670;28;20512;-65
2021/04/16 01:58:03;;;;;;;8.10;6.85;;;;;;;5.97;66.07;101065.84;5014747;28;20042;-64
2021/04/16 02:00:39;;;;;;;8.10;6.65;;;;;;;5.97;66.40;101059.81;5013683;28;20073;-64
2021/04/16 02:03:07;;;;;;;8.40;6.60;;;;;;;5.97;66.92;101058.13;5014029;28;20038;-65
2021/04/16 02:05:39;;;;;;;8.02;6.93;;;;;;;5.98;66.58;101059.00;5014695;28;20033;-64
2021/04/16 02:08:09;;;;;;;9.50;6.78;;;;;;;5.96;66.65;101058.94;5014078;28;20125;-64
2021/04/16 02:10:38;;;;;;;7.22;5.95;;;;;;;5.97;66.26;101065.84;5014916;28;20049;-64
2021/04/16 02:13:07;;;;;;;9.35;6.68;;;;;;;5.95;66.32;101054.59;5014397;28;20046;-65
2021/04/16 02:15:38;;;;;;;9.15;6.78;;;;;;;5.94;66.62;101055.41;5014334;28;20033;-64
2021/04/16 02:18:09;;;;;;;8.20;6.35;;;;;;;5.94;66.34;101052.81;5013379;28;20042;-64
2021/04/16 02:20:42;;;;;;;10.50;7.40;;;;;;;5.93;66.23;101053.63;5013067;28;20401;-64
2021/04/16 02:23:08;;;;;;;8.77;6.63;;;;;;;5.93;66.48;101051.94;4996566;28;20485;-64
2021/04/16 02:25:39;;;;;;;9.48;6.45;;;;;;;5.94;66.22;101057.97;5013085;28;20040;-64
2021/04/16 02:28:09;;;;;;;8.15;6.38;;;;;;;5.93;66.84;101059.66;5013399;28;20042;-64
2021/04/16 02:30:40;;;;;;;11.63;7.60;;;;;;;5.92;66.46;101052.72;5014315;28;20405;-64
2021/04/16 02:33:08;;;;;;;7.32;6.63;;;;;;;5.91;66.86;101058.72;5012614;28;20045;-64
2021/04/16 02:35:39;;;;;;;8.05;6.75;;;;;;;5.90;66.37;101051.78;5013793;28;20117;-64
2021/04/16 02:38:04;;;;;;;8.82;6.82;;;;;;;5.91;66.41;101050.09;5014372;28;20041;-64
2021/04/16 02:40:30;;;;;;;9.77;7.30;;;;;;;5.91;66.83;101052.66;5013897;28;20030;-65
2021/04/16 02:42:56;;;;;;;9.02;6.53;;;;;;;5.90;66.74;101054.38;5012476;28;20137;-64
2021/04/16 02:45:27;;;;;;;8.35;6.32;;;;;;;5.90;66.77;101050.88;5012376;28;20030;-64
2021/04/16 02:47:57;;;;;;;8.18;6.75;;;;;;;5.89;66.72;101046.56;5012448;28;20054;-64
2021/04/16 02:50:32;;;;;;;8.23;7.10;;;;;;;5.88;66.85;101053.41;5014345;28;20038;-64
2021/04/16 02:53:00;;;;;;;10.25;7.68;;;;;;;5.89;67.01;101056.84;5013744;28;20045;-64
2021/04/16 02:55:31;;;;;;;8.32;6.55;;;;;;;5.89;66.46;101057.75;5012768;28;20190;-64
2021/04/16 02:57:59;;;;;;;8.65;6.57;;;;;;;5.89;66.90;101062.00;5012451;28;20038;-64
2021/04/16 03:00:31;;;;;;;9.20;7.15;;;;;;;5.88;66.82;101060.22;5014045;28;20034;-64
2021/04/16 03:03:03;;;;;;;7.80;6.57;;;;;;;5.87;66.38;101058.44;5012182;28;20052;-64
2021/04/16 03:05:31;;;;;;;9.98;7.72;;;;;;;5.86;66.60;101060.16;4996814;28;20415;-65
2021/04/16 03:07:56;;;;;;;9.95;6.65;;;;;;;5.86;66.25;101055.00;5012520;28;20038;-64
2021/04/16 03:10:31;;;;;;;8.45;7.22;;;;;;;5.85;66.38;101049.75;5012397;28;20399;-64
2021/04/16 03:13:04;;;;;;;8.83;7.30;;;;;;;5.85;66.68;101053.25;5012319;28;20045;-64
2021/04/16 03:15:30;;;;;;;9.38;6.95;;;;;;;5.83;66.64;101052.28;4996539;28;20084;-64
2021/04/16 03:18:03;;;;;;;8.98;6.80;;;;;;;5.83;66.94;101048.81;5012512;28;20053;-64
2021/04/16 03:20:31;;;;;;;9.32;7.55;;;;;;;5.82;66.92;101047.94;5012371;28;20052;-64
2021/04/16 03:23:07;;;;;;;8.57;7.00;;;;;;;5.83;66.64;101049.69;5012034;28;20120;-64
2021/04/16 03:25:33;;;;;;;10.35;8.20;;;;;;;5.81;66.43;101043.59;5013575;28;20032;-64
2021/04/16 03:28:00;;;;;;;8.27;7.35;;;;;;;5.82;66.90;101052.22;5012694;28;20038;-64
2021/04/16 03:30:30;;;;;;;9.48;7.68;;;;;;;5.79;66.76;101048.66;4996324;28;20393;-65
2021/04/16 03:32:56;;;;;;;10.02;7.13;;;;;;;5.80;66.73;101059.81;5012324;28;20038;-65
2021/04/16 03:35:24;;;;;;;8.90;7.53;;;;;;;5.79;66.72;101051.25;5013634;28;20034;-65
2021/04/16 03:37:50;;;;;;;8.48;7.47;;;;;;;5.78;67.07;101052.03;5013476;28;20133;-64
2021/04/16 03:40:23;;;;;;;8.73;7.15;;;;;;;5.79;66.79;101050.34;5011915;28;20497;-64
2021/04/16 03:42:51;;;;;;;8.85;7.95;;;;;;;5.78;66.89;101051.13;4995859;28;20037;-64
2021/04/16 03:45:23;;;;;;;10.13;6.70;;;;;;;5.77;66.68;101044.22;5013750;28;20117;-64
2021/04/16 03:47:55;;;;;;;11.18;8.23;;;;;;;5.77;66.94;101052.84;5012031;28;20485;-64
2021/04/16 03:50:30;;;;;;;8.77;7.60;;;;;;;5.76;66.60;101045.06;5013180;28;20050;-64
2021/04/16 03:53:04;;;;;;;10.98;7.47;;;;;;;5.76;66.88;101055.34;5012438;28;20128;-64
2021/04/16 03:55:36;;;;;;;10.70;7.68;;;;;;;5.75;66.51;101041.59;5013244;28;20069;-65
2021/04/16 03:58:05;;;;;;;10.77;8.02;;;;;;;5.74;66.57;101044.09;5011990;28;20041;-65
2021/04/16 04:00:33;;;;;;;10.38;8.30;;;;;;;5.74;67.07;101046.66;4995394;28;20030;-65
2021/04/16 04:03:04;;;;;;;10.80;8.65;;;;;;;5.73;66.58;101040.63;4995013;28;20053;-65
2021/04/16 04:05:32;;;;;;;10.13;7.85;;;;;;;5.73;67.04;101048.34;5011395;28;20034;-64
2021/04/16 04:08:00;;;;;;;11.65;9.02;;;;;;;5.72;67.13;101041.41;5012781;28;20041;-64
2021/04/16 04:10:34;;;;;;;12.65;9.50;;;;;;;5.72;66.78;101041.41;5013320;28;20038;-64
2021/04/16 04:13:00;;;;;;;11.10;9.07;;;;;;;5.72;66.57;101043.13;5015380;28;20041;-64
2021/04/16 04:15:28;;;;;;;10.73;9.13;;;;;;;5.70;66.49;101043.03;5016116;28;20092;-64
2021/04/16 04:17:56;;;;;;;9.90;8.35;;;;;;;5.71;66.92;101047.38;5016524;28;20041;-65
2021/04/16 04:20:28;;;;;;;11.95;8.48;;;;;;;5.69;67.07;101043.81;5016791;28;20131;-65
2021/04/16 04:22:56;;;;;;;12.82;9.27;;;;;;;5.69;66.43;101056.69;5016290;28;20034;-64
2021/04/16 04:25:23;;;;;;;14.07;9.18;;;;;;;5.68;66.79;101057.53;5016683;28;20385;-64
2021/04/16 04:27:52;;;;;;;11.40;8.90;;;;;;;5.67;67.29;101060.91;5016479;28;20100;-64
2021/04/16 04:30:25;;;;;;;10.32;8.40;;;;;;;5.69;66.75;101060.97;5015130;28;20042;-64
2021/04/16 04:32:54;;;;;;;11.75;9.20;;;;;;;5.68;66.89;101056.63;5017061;28;20034;-65
2021/04/16 04:35:22;;;;;;;11.43;9.82;;;;;;;5.66;66.55;101060.78;5015898;28;20037;-65
2021/04/16 04:37:56;;;;;;;15.80;9.95;;;;;;;5.65;66.80;101057.34;5016418;28;20029;-64
2021/04/16 04:40:27;;;;;;;12.13;9.45;;;;;;;5.66;66.74;101061.69;5014695;28;20045;-64
2021/04/16 04:42:59;;;;;;;12.38;9.68;;;;;;;5.66;66.82;101060.78;5014854;28;20034;-64
2021/04/16 04:45:25;;;;;;;12.52;8.65;;;;;;;5.63;66.91;101053.81;5016338;28;20045;-65
2021/04/16 04:47:51;;;;;;;13.65;9.93;;;;;;;5.63;66.91;101056.38;5014776;28;20033;-64
2021/04/16 04:50:25;;;;;;;10.60;8.77;;;;;;;5.63;66.25;101048.69;5014571;28;20046;-64
2021/04/16 04:53:01;;;;;;;15.88;9.82;;;;;;;5.62;66.40;101055.50;4998888;28;20088;-64
2021/04/16 04:55:30;;;;;;;9.85;8.48;;;;;;;5.61;66.81;101055.41;5014497;28;20042;-64
2021/04/16 04:58:00;;;;;;;13.43;10.32;;;;;;;5.60;66.94;101054.56;5014623;28;20038;-64
2021/04/16 05:00:32;;;;;;;10.98;8.95;;;;;;;5.61;67.24;101051.16;4998504;28;20218;-65
2021/04/16 05:03:00;;;;;;;12.05;9.75;;;;;;;5.61;66.54;101061.44;4998064;28;20069;-64
2021/04/16 05:05:31;;;;;;;10.65;8.57;;;;;;;5.60;67.06;101062.28;4998252;28;20105;-64
2021/04/16 05:08:01;;;;;;;11.23;8.35;;;;;;;5.59;66.56;101060.50;5014266;28;20042;-65
2021/04/16 05:10:31;;;;;;;11.77;8.95;;;;;;;5.60;66.70;101069.09;5016346;28;20477;-64
2021/04/16 05:13:07;;;;;;;11.98;9.20;;;;;;;5.58;66.80;101065.53;4998607;28;20048;-64
2021/04/16 05:15:34;;;;;;;9.48;8.27;;;;;;;5.59;66.54;101062.16;5014223;28;20061;-65
2021/04/16 05:18:02;;;;;;;12.80;9.65;;;;;;;5.59;66.85;101073.34;5015687;28;20124;-64
2021/04/16 05:20:33;;;;;;;10.07;8.65;;;;;;;5.57;67.17;101069.81;5015301;28;20124;-64
2021/04/16 05:23:02;;;;;;;10.63;8.52;;;;;;;5.57;67.07;101066.34;5014039;28;20453;-65
2021/04/16 05:25:27;;;;;;;10.57;8.70;;;;;;;5.57;66.89;101074.06;5015489;28;20042;-65
2021/04/16 05:27:57;;;;;;;12.90;9.98;;;;;;;5.56;67.10;101073.19;4998001;28;20490;-65
2021/04/16 05:30:23;;;;;;;12.63;9.00;;;;;;;5.57;67.24;101071.47;5013802;28;20065;-65
2021/04/16 05:32:55;;;;;;;11.90;9.38;;;;;;;5.56;66.73;101067.16;5013853;28;20033;-64
2021/04/16 05:35:21;;;;;;;11.13;8.70;;;;;;;5.55;67.10;101065.38;5013831;28;20073;-65
2021/04/16 05:37:47;;;;;;;12.18;9.55;;;;;;;5.56;67.08;101069.72;5015051;28;20069;-64
2021/04/16 05:40:13;;;;;;;9.80;8.35;;;;;;;5.55;67.18;101071.41;5013809;28;20072;-64
2021/04/16 05:42:41;;;;;;;10.68;8.88;;;;;;;5.55;66.68;101073.09;5013723;28;20034;-65
2021/04/16 05:45:09;;;;;;;10.27;8.52;;;;;;;5.54;67.20;101073.88;5014854;28;20041;-64
2021/04/16 05:47:37;;;;;;;11.27;9.88;;;;;;;5.54;67.14;101084.19;4997250;28;20052;-65
2021/04/16 05:50:06;;;;;;;13.18;9.45;;;;;;;5.54;66.94;101094.47;5015610;28;20034;-65
2021/04/16 05:52:31;;;;;;;9.93;8.25;;;;;;;5.53;66.94;101091.03;5014681;28;20092;-64
2021/04/16 05:54:57;;;;;;;11.88;8.50;;;;;;;5.53;67.23;101087.59;5013628;28;20092;-65
2021/04/16 05:57:30;;;;;;;8.88;7.90;;;;;;;5.53;67.17;101085.00;5013875;28;20042;-64
2021/04/16 06:00:01;;;;;;;10.93;8.43;;;;;;;5.53;67.14;101085.00;5014302;28;20042;-65
2021/04/16 06:02:36;;;;;;;11.05;8.60;;;;;;;5.51;66.90;101078.91;5013089;28;20050;-64
2021/04/16 06:05:05;;;;;;;12.02;9.02;;;;;;;5.51;67.18;101078.91;5014763;28;20034;-65
2021/04/16 06:07:34;;;;;;;10.43;8.65;;;;;;;5.50;67.30;101078.00;5012887;28;20038;-65
2021/04/16 06:10:03;;;;;;;9.45;8.40;;;;;;;5.50;67.10;101088.28;5014589;28;20041;-64
2021/04/16 06:12:37;;;;;;;10.90;9.32;;;;;;;5.51;66.92;101086.59;5013372;28;20428;-64
2021/04/16 06:15:08;;;;;;;11.73;8.40;;;;;;;5.48;66.81;101085.63;4997442;28;20061;-65
2021/04/16 06:17:36;;;;;;;10.65;8.43;;;;;;;5.49;66.94;101081.38;5014373;28;20046;-64
2021/04/16 06:20:06;;;;;;;9.98;8.02;;;;;;;5.48;67.21;101085.63;5014028;28;20041;-64
2021/04/16 06:22:34;;;;;;;10.43;8.95;;;;;;;5.48;67.30;101082.16;5012853;28;20034;-65
2021/04/16 06:24:59;;;;;;;9.82;8.02;;;;;;;5.48;67.31;101080.50;5013015;28;20034;-64
2021/04/16 06:27:28;;;;;;;9.65;7.35;;;;;;;5.48;67.25;101083.06;5013698;28;20048;-65
2021/04/16 06:29:56;;;;;;;11.00;8.57;;;;;;;5.49;67.11;101081.38;5014190;28;20049;-65
2021/04/16 06:32:24;;;;;;;10.95;8.38;;;;;;;5.47;67.29;101076.16;5014248;28;20045;-64
2021/04/16 06:34:52;;;;;;;9.45;7.97;;;;;;;5.47;67.25;101082.97;5013203;28;20124;-65
2021/04/16 06:37:25;;;;;;;8.23;7.22;;;;;;;5.47;67.29;101072.69;5012734;28;20437;-64
2021/04/16 06:39:50;;;;;;;11.40;8.40;;;;;;;5.45;67.45;101070.03;5012347;28;20064;-64
2021/04/16 06:42:22;;;;;;;9.55;7.40;;;;;;;5.46;66.56;101070.91;5012498;28;20120;-64
2021/04/16 06:44:52;;;;;;;11.40;8.45;;;;;;;5.44;67.27;101077.69;5012885;28;20146;-64
2021/04/16 06:47:24;;;;;;;9.60;8.20;;;;;;;5.44;67.33;101077.69;4996666;28;20045;-64
2021/04/16 06:49:50;;;;;;;11.38;8.23;;;;;;;5.42;66.85;101085.31;5014228;28;20042;-64
2021/04/16 06:52:23;;;;;;;10.18;8.02;;;;;;;5.42;66.99;101081.84;5012692;28;20111;-64
2021/04/16 06:55:31;;;;;;;11.23;8.10;;;;;;;5.41;67.43;101082.66;5014073;28;20429;-65
2021/04/16 06:58:03;;;;;;;12.93;8.60;;;;;;;5.40;67.17;101093.75;4921624;29;20415;-64
2021/04/16 07:00:47;;;;;;;10.55;8.38;;;;;;;5.40;66.61;101094.63;5006305;28;20136;-65
2021/04/16 07:03:31;;;;;;;10.52;8.05;;;;;;;5.39;67.47;101097.97;5012179;28;20057;-64
2021/04/16 07:05:56;;;;;;;;;;;;;;;5.39;66.62;101089.41;5013782;28;20103;-64
2021/04/16 07:08:32;;;;;;;10.93;7.82;;;;;;;5.38;67.16;101093.63;5012767;28;20369;-64
2021/04/16 07:11:04;;;;;;;9.50;8.38;;;;;;;5.38;66.99;101092.78;5012549;28;20045;-64
2021/04/16 07:13:35;;;;;;;9.70;8.70;;;;;;;5.37;66.78;101085.84;5012175;28;20034;-65
2021/04/16 07:16:03;;;;;;;11.00;7.75;;;;;;;5.37;67.12;101091.00;5014365;28;20030;-65
2021/04/16 07:18:43;;;;;;;9.88;7.78;;;;;;;5.38;67.69;101093.63;5012556;28;20054;-64
2021/04/16 07:21:11;;;;;;;9.48;8.43;;;;;;;5.37;67.36;101094.47;5014040;28;20034;-64
2021/04/16 07:23:52;;;;;;;11.15;8.02;;;;;;;5.38;67.37;101093.63;5013426;28;20433;-64
2021/04/16 07:26:32;;;;;;;10.13;7.72;;;;;;;5.38;67.23;101091.06;5013940;28;20034;-65
2021/04/16 07:28:59;;;;;;;11.55;7.75;;;;;;;5.38;67.46;101095.34;5013654;28;20387;-64
2021/04/16 07:31:36;;;;;;;10.55;7.47;;;;;;;5.38;67.90;101085.06;5013616;28;20038;-65
2021/04/16 07:34:03;;;;;;;8.90;7.35;;;;;;;5.38;67.15;101087.63;5013710;28;20081;-65
2021/04/16 07:36:41;;;;;;;10.20;6.88;;;;;;;5.38;67.15;101087.63;5011714;28;20042;-64
2021/04/16 07:39:17;;;;;;;10.05;7.05;;;;;;;5.38;67.15;101092.78;5012029;28;20038;-64
2021/04/16 07:41:53;;;;;;;10.52;7.63;;;;;;;5.37;67.82;101083.28;5013343;28;20038;-64
2021/04/16 07:44:25;;;;;;;8.40;6.97;;;;;;;5.36;67.48;101087.56;5012192;28;20042;-65
2021/04/16 07:46:56;;;;;;;8.43;7.60;;;;;;;5.36;67.05;101090.13;5015602;28;20379;-65
2021/04/16 07:49:54;;;;;;;8.77;7.28;;;;;;;5.36;67.39;101090.13;5016100;28;20038;-65
2021/04/16 07:52:30;;;;;;;9.43;7.82;;;;;;;5.36;67.73;101099.50;4984236;28;20421;-64
2021/04/16 07:55:20;;;;;;;8.07;6.82;;;;;;;5.36;66.59;101097.84;5016976;28;20049;-64
2021/04/16 07:58:21;;;;;;;8.38;7.10;;;;;;;5.36;67.35;101105.56;5017443;28;20033;-65
2021/04/16 08:00:51;;;;;;;9.15;6.82;;;;;;;5.35;67.08;101108.94;5016988;28;20057;-65
2021/04/16 08:03:25;;;;;;;9.90;7.55;;;;;;;5.36;67.27;101105.56;5015217;28;20459;-65
2021/04/16 08:05:58;;;;;;;9.43;7.70;;;;;;;5.36;67.34;101112.38;4999182;28;20033;-65
2021/04/16 08:08:25;;;;;;;11.75;8.60;;;;;;;5.35;67.66;101103.78;5016740;28;20049;-64
2021/04/16 08:11:15;;;;;;;10.48;7.90;;;;;;;5.36;67.21;101110.69;5015452;28;20048;-65
2021/04/16 08:13:44;;;;;;;9.98;7.60;;;;;;;5.34;67.15;101105.44;5015507;28;20120;-65
2021/04/16 08:16:27;;;;;;;9.57;7.68;;;;;;;5.35;67.41;101106.34;5016111;28;20037;-64
2021/04/16 08:18:59;;;;;;;8.90;7.13;;;;;;;5.36;67.48;101113.28;4999656;28;20100;-65
2021/04/16 08:21:34;;;;;;;8.68;7.68;;;;;;;5.37;67.57;101107.31;5016938;28;20038;-65
2021/04/16 08:24:24;;;;;;;10.93;8.18;;;;;;;5.37;67.14;101112.47;5015201;28;20034;-65
2021/04/16 08:27:18;;;;;;;10.48;7.57;;;;;;;5.35;66.88;101111.50;5015505;28;20034;-65
2021/04/16 08:29:53;;;;;;;9.73;8.73;;;;;;;5.36;67.44;101110.69;5014865;28;20065;-65
2021/04/16 08:32:53;;;;;;;9.05;7.80;;;;;;;5.37;67.48;101111.56;5015262;28;20042;-65
2021/04/16 08:35:33;;;;;;;9.43;8.20;;;;;;;5.37;67.53;101109.91;5015436;28;20116;-65
2021/04/16 08:38:08;;;;;;;12.85;7.82;;;;;;;5.38;66.98;101114.22;4999199;28;20034;-65
2021/04/16 08:40:39;;;;;;;11.32;7.70;;;;;;;5.38;66.80;101114.22;5015271;28;20034;-65
2021/04/16 08:43:07;;;;;;;8.23;6.93;;;;;;;5.38;66.99;101109.06;5016095;28;20037;-65
2021/04/16 08:45:39;;;;;;;11.07;7.35;;;;;;;5.40;67.62;101110.03;4998175;28;20397;-65
2021/04/16 08:48:52;;;;;;;11.70;7.63;;;;;;;5.40;67.51;101111.75;5016123;28;20065;-65
2021/04/16 08:51:26;;;;;;;9.40;8.40;;;;;;;5.41;67.10;101108.38;4975114;28;20116;-64
2021/04/16 08:54:01;;;;;;;10.85;8.25;;;;;;;5.40;67.22;101092.03;5015999;28;20103;-65
2021/04/16 08:56:32;;;;;;;9.38;6.80;;;;;;;5.41;67.75;101096.38;5015843;28;20052;-65
2021/04/16 08:59:12;;;;;;;12.13;8.43;;;;;;;5.41;67.07;101092.94;5015040;28;20034;-65
2021/04/16 09:01:47;;;;;;;10.27;7.70;;;;;;;5.42;67.26;101093.00;5015124;28;20053;-65
2021/04/16 09:04:25;;;;;;;11.45;7.80;;;;;;;5.43;67.35;101096.47;5015673;28;20117;-65
2021/04/16 09:06:58;;;;;;;9.85;7.70;;;;;;;5.44;67.71;101083.69;5015984;28;20042;-65
2021/04/16 09:10:02;;;;;;;8.95;7.55;;;;;;;5.45;67.19;101079.47;4998544;28;20096;-65
2021/04/16 09:12:48;;;;;;;10.23;7.72;;;;;;;5.47;67.11;101083.88;4974098;28;20057;-65
2021/04/16 09:15:19;;;;;;;10.40;8.77;;;;;;;5.49;67.07;101089.06;5015751;28;20061;-65
2021/04/16 09:17:51;;;;;;;11.05;8.43;;;;;;;5.51;67.74;101089.19;5014295;28;20034;-65
2021/04/16 09:20:33;;;;;;;9.65;7.47;;;;;;;5.53;67.44;101087.59;5015337;28;20041;-66
2021/04/16 09:23:01;;;;;;;9.85;7.78;;;;;;;5.54;67.22;101086.75;5014113;28;20045;-65
2021/04/16 09:25:34;;;;;;;9.32;7.43;;;;;;;5.55;67.96;101097.13;5015623;28;20045;-65
2021/04/16 09:28:21;;;;;;;10.65;7.60;;;;;;;5.56;67.18;101093.75;5014472;28;20044;-65
2021/04/16 09:30:51;;;;;;;10.35;8.60;;;;;;;5.59;67.14;101080.16;5015220;28;20030;-64
2021/04/16 09:33:24;;;;;;;10.13;8.13;;;;;;;5.60;67.79;101084.50;5014667;28;20041;-65
2021/04/16 09:36:11;;;;;;;9.60;7.03;;;;;;;5.62;67.13;101077.75;5014855;28;20041;-65
2021/04/16 09:38:52;;;;;;;8.93;6.95;;;;;;;5.63;67.01;101075.25;5015378;28;20045;-65
2021/04/16 09:41:22;;;;;;;8.98;7.30;;;;;;;5.64;66.72;101078.75;5013912;28;20033;-65
2021/04/16 09:44:28;;;;;;;16.13;8.18;;;;;;;5.67;67.12;101076.34;5015072;28;20038;-65
2021/04/16 09:47:01;;;;;;;7.72;6.90;;;;;;;5.67;67.48;101066.03;5014989;28;20033;-64
2021/04/16 09:49:29;;;;;;;8.45;7.30;;;;;;;5.70;67.32;101065.31;5014852;28;20508;-65
2021/04/16 09:52:29;;;;;;;10.63;7.72;;;;;;;5.71;66.88;101074.78;4997550;28;20034;-65
2021/04/16 09:54:59;;;;;;;12.65;8.00;;;;;;;5.72;67.32;101074.00;5014860;28;20045;-65
2021/04/16 09:57:41;;;;;;;8.80;7.28;;;;;;;5.73;67.33;101068.91;5013456;28;20029;-65
2021/04/16 10:00:35;;;;;;;8.60;6.85;;;;;;;5.73;67.85;101066.34;5013645;28;20165;-65
2021/04/16 10:03:20;;;;;;;11.50;8.45;;;;;;;5.75;67.04;101061.28;5014196;28;20046;-65
2021/04/16 10:05:45;;;;;;;8.73;6.72;;;;;;;5.74;67.28;101060.41;5013421;28;20049;-65
2021/04/16 10:08:30;;;;;;;9.50;6.90;;;;;;;5.77;67.51;101063.13;4996659;28;20034;-65
2021/04/16 10:11:04;;;;;;;11.20;7.50;;;;;;;5.77;67.45;101062.22;5013196;28;20048;-65
2021/04/16 10:13:35;;;;;;;10.52;8.05;;;;;;;5.77;67.58;101055.41;5014716;28;20038;-65
2021/04/16 10:16:03;;;;;;;11.98;7.63;;;;;;;5.79;67.30;101060.63;5013356;28;20052;-65
2021/04/16 10:18:41;;;;;;;10.02;7.47;;;;;;;5.80;67.27;101046.97;5013276;28;20041;-65
2021/04/16 10:21:07;;;;;;;12.18;7.97;;;;;;;5.79;67.33;101048.66;5014326;28;20124;-64
2021/04/16 10:23:38;;;;;;;10.23;6.55;;;;;;;5.81;67.06;101045.28;4996699;28;20038;-64
2021/04/16 11:07:02;;;;;;;7.35;6.22;;;;;;;5.85;66.76;101024.03;5013599;28;20050;-65
2021/04/16 11:23:39;;;;;;;8.18;5.35;;;;;;;5.82;67.17;100999.03;5016007;28;20088;-65
2021/04/16 12:38:58;;;;;;;7.72;5.38;;;;;;;5.82;67.24;100962.16;5015846;28;20117;-65
2021/04/16 12:41:25;;;;;;;;;;;;;;;5.82;67.39;100957.88;5015559;28;20038;-65
2021/04/16 12:43:52;;;;;;;9.57;6.40;;;;;;;5.82;67.45;100965.59;5015968;28;20360;-65
2021/04/16 12:46:25;;;;;;;13.90;7.00;;;;;;;5.83;67.22;100967.38;4998431;28;20413;-65
2021/04/16 12:48:51;;;;;;;8.70;6.50;;;;;;;5.84;67.07;100969.13;5016128;28;20044;-64
2021/04/16 12:51:17;;;;;;;9.13;5.63;;;;;;;5.84;67.18;100966.56;5016034;28;20034;-65
2021/04/16 12:53:43;;;;;;;6.68;5.95;;;;;;;5.86;67.39;100964.06;5015975;28;20077;-64
2021/04/16 12:56:17;;;;;;;6.82;5.50;;;;;;;5.87;66.88;100963.25;5014748;28;20555;-65
2021/04/16 12:58:46;;;;;;;7.03;5.82;;;;;;;5.85;67.01;100963.19;5016439;28;20041;-65
2021/04/16 13:01:27;;;;;;;7.22;6.13;;;;;;;5.85;67.29;100962.28;4998067;28;20040;-65
2021/04/16 13:03:56;;;;;;;7.10;5.57;;;;;;;5.86;67.34;100959.81;5014864;28;20033;-65
2021/04/16 13:06:32;;;;;;;9.82;6.25;;;;;;;5.86;67.53;100967.53;5014485;28;20045;-64
2021/04/16 13:08:58;;;;;;;6.70;5.50;;;;;;;5.87;67.06;100970.97;5014507;28;20033;-65
2021/04/16 13:11:27;;;;;;;10.23;5.88;;;;;;;5.86;67.26;100964.06;5015316;28;20519;-65
2021/04/16 13:13:54;;;;;;;7.80;5.57;;;;;;;5.87;67.06;100965.81;5014565;28;20064;-65
2021/04/16 13:16:23;;;;;;;8.27;5.55;;;;;;;5.87;66.82;100969.28;5014256;28;20041;-65
2021/04/16 13:18:59;;;;;;;6.72;6.03;;;;;;;5.87;67.21;100966.72;5014256;28;20037;-65
2021/04/16 13:21:32;;;;;;;7.30;5.68;;;;;;;5.86;66.88;100962.38;5015218;28;20042;-65
2021/04/16 13:24:10;;;;;;;9.52;5.88;;;;;;;5.87;67.44;100963.25;5014064;28;20069;-65
2021/04/16 13:26:37;;;;;;;6.80;5.75;;;;;;;5.87;67.59;100961.56;5014021;28;20485;-65
2021/04/16 13:29:04;;;;;;;8.40;5.90;;;;;;;5.87;67.08;100958.09;5015591;28;20113;-65
2021/04/16 13:31:36;;;;;;;7.40;5.38;;;;;;;5.87;67.33;100956.44;5015245;28;20033;-65
2021/04/16 13:34:04;;;;;;;6.25;5.63;;;;;;;5.88;67.43;100957.31;5013891;28;20080;-65
2021/04/16 13:36:34;;;;;;;5.57;4.65;;;;;;;5.88;67.13;100947.91;5014166;28;20042;-65
2021/04/16 13:39:03;;;;;;;6.30;5.30;;;;;;;5.88;66.85;100958.19;5014066;28;20049;-65
2021/04/16 13:41:31;;;;;;;6.22;5.25;;;;;;;5.90;67.40;100953.13;4997450;28;20042;-65
2021/04/16 13:44:03;;;;;;;5.90;5.22;;;;;;;5.91;67.45;100947.16;5012733;28;20122;-65
2021/04/16 13:46:33;;;;;;;8.05;6.32;;;;;;;5.91;67.09;100957.47;4997179;28;20412;-65
2021/04/16 13:49:00;;;;;;;6.68;5.95;;;;;;;5.91;66.93;100948.06;5013610;28;20034;-65
2021/04/16 13:51:28;;;;;;;6.82;6.13;;;;;;;5.90;67.05;100943.72;5015093;28;20099;-65
2021/04/16 13:54:01;;;;;;;8.27;6.05;;;;;;;5.91;67.35;100942.03;4997563;28;20041;-64
2021/04/16 13:56:29;;;;;;;6.70;5.97;;;;;;;5.91;67.03;100936.88;5015031;28;20489;-65
2021/04/16 13:58:58;;;;;;;6.72;5.90;;;;;;;5.89;67.04;100936.81;5013075;28;20057;-64
2021/04/16 14:01:26;;;;;;;7.35;5.60;;;;;;;5.90;67.61;100940.25;5013028;28;20587;-65
2021/04/16 14:04:00;;;;;;;6.60;5.60;;;;;;;5.91;67.08;100936.88;5014835;28;20492;-64